sensor_id;sensor_type;location;lat;lon;timestamp;temperature;humidity
21502;DHT22;27639;48.674;9.242;2023-06-22T00:01:58;25.60;59.70
21502;DHT22;27639;48.674;9.242;2023-06-22T00:04:24;25.70;59.70
21502;DHT22;27639;48.674;9.242;2023-06-22T00:06:49;25.60;59.50
21502;DHT22;27639;48.674;9.242;2023-06-22T00:09:15;25.60;59.60
21502;DHT22;27639;48.674;9.242;2023-06-22T00:11:41;25.60;59.60
21502;DHT22;27639;48.674;9.242;2023-06-22T00:14:06;25.60;59.60
21502;DHT22;27639;48.674;9.242;2023-06-22T00:16:32;25.50;59.60
21502;DHT22;27639;48.674;9.242;2023-06-22T00:18:58;25.50;59.80
21502;DHT22;27639;48.674;9.242;2023-06-22T00:21:29;25.50;59.90
21502;DHT22;27639;48.674;9.242;2023-06-22T00:23:55;25.50;59.80
21502;DHT22;27639;48.674;9.242;2023-06-22T00:26:21;25.40;59.80
21502;DHT22;27639;48.674;9.242;2023-06-22T00:28:47;25.40;60.10
21502;DHT22;27639;48.674;9.242;2023-06-22T00:31:13;25.30;60.20
21502;DHT22;27639;48.674;9.242;2023-06-22T00:33:39;25.20;60.40
21502;DHT22;27639;48.674;9.242;2023-06-22T00:36:05;25.20;60.70
21502;DHT22;27639;48.674;9.242;2023-06-22T00:38:33;25.20;60.90
21502;DHT22;27639;48.674;9.242;2023-06-22T00:40:59;25.10;60.70
21502;DHT22;27639;48.674;9.242;2023-06-22T00:43:24;25.20;61.80
21502;DHT22;27639;48.674;9.242;2023-06-22T00:45:50;25.10;60.90
21502;DHT22;27639;48.674;9.242;2023-06-22T00:48:15;25.10;60.90
21502;DHT22;27639;48.674;9.242;2023-06-22T00:50:42;25.10;60.90
21502;DHT22;27639;48.674;9.242;2023-06-22T00:53:09;25.10;60.90
21502;DHT22;27639;48.674;9.242;2023-06-22T00:55:44;25.20;60.90
21502;DHT22;27639;48.674;9.242;2023-06-22T00:58:11;25.10;60.90
21502;DHT22;27639;48.674;9.242;2023-06-22T01:00:38;25.10;60.80
21502;DHT22;27639;48.674;9.242;2023-06-22T01:03:04;25.10;60.90
21502;DHT22;27639;48.674;9.242;2023-06-22T01:05:34;25.00;61.00
21502;DHT22;27639;48.674;9.242;2023-06-22T01:16:23;24.90;61.20
21502;DHT22;27639;48.674;9.242;2023-06-22T01:18:51;25.00;62.00
21502;DHT22;27639;48.674;9.242;2023-06-22T01:21:19;25.00;61.30
21502;DHT22;27639;48.674;9.242;2023-06-22T01:24:26;25.00;61.20
21502;DHT22;27639;48.674;9.242;2023-06-22T01:27:36;24.90;61.00
21502;DHT22;27639;48.674;9.242;2023-06-22T01:29:55;24.80;61.60
21502;DHT22;27639;48.674;9.242;2023-06-22T01:32:35;24.80;61.60
21502;DHT22;27639;48.674;9.242;2023-06-22T01:35:04;24.80;61.70
21502;DHT22;27639;48.674;9.242;2023-06-22T01:37:31;24.80;61.60
21502;DHT22;27639;48.674;9.242;2023-06-22T01:39:58;24.80;61.80
21502;DHT22;27639;48.674;9.242;2023-06-22T01:42:24;24.70;61.90
21502;DHT22;27639;48.674;9.242;2023-06-22T01:44:54;24.60;61.90
21502;DHT22;27639;48.674;9.242;2023-06-22T01:47:22;24.60;62.00
21502;DHT22;27639;48.674;9.242;2023-06-22T01:49:48;24.60;62.10
21502;DHT22;27639;48.674;9.242;2023-06-22T01:52:15;24.60;62.20
21502;DHT22;27639;48.674;9.242;2023-06-22T01:54:41;24.60;62.30
21502;DHT22;27639;48.674;9.242;2023-06-22T01:57:07;24.60;62.30
21502;DHT22;27639;48.674;9.242;2023-06-22T01:59:37;24.60;62.30
21502;DHT22;27639;48.674;9.242;2023-06-22T02:02:09;24.60;62.30
21502;DHT22;27639;48.674;9.242;2023-06-22T02:04:39;24.70;62.20
21502;DHT22;27639;48.674;9.242;2023-06-22T02:07:12;24.70;62.00
21502;DHT22;27639;48.674;9.242;2023-06-22T02:09:43;24.70;62.00
21502;DHT22;27639;48.674;9.242;2023-06-22T02:12:10;24.70;61.80
21502;DHT22;27639;48.674;9.242;2023-06-22T02:14:36;24.80;61.90
21502;DHT22;27639;48.674;9.242;2023-06-22T02:17:03;24.80;61.80
21502;DHT22;27639;48.674;9.242;2023-06-22T02:19:35;24.70;61.60
21502;DHT22;27639;48.674;9.242;2023-06-22T02:22:01;24.70;61.70
21502;DHT22;27639;48.674;9.242;2023-06-22T02:24:27;24.60;61.50
21502;DHT22;27639;48.674;9.242;2023-06-22T02:26:52;24.60;61.70
21502;DHT22;27639;48.674;9.242;2023-06-22T02:29:18;24.60;61.70
21502;DHT22;27639;48.674;9.242;2023-06-22T02:31:43;24.50;61.60
21502;DHT22;27639;48.674;9.242;2023-06-22T02:34:09;24.50;61.80
21502;DHT22;27639;48.674;9.242;2023-06-22T02:36:35;24.40;61.80
21502;DHT22;27639;48.674;9.242;2023-06-22T02:39:00;24.40;62.10
21502;DHT22;27639;48.674;9.242;2023-06-22T02:41:27;24.40;62.10
21502;DHT22;27639;48.674;9.242;2023-06-22T02:43:53;24.40;62.20
21502;DHT22;27639;48.674;9.242;2023-06-22T02:46:18;24.40;62.10
21502;DHT22;27639;48.674;9.242;2023-06-22T02:48:44;24.40;62.30
21502;DHT22;27639;48.674;9.242;2023-06-22T02:51:09;24.30;62.20
21502;DHT22;27639;48.674;9.242;2023-06-22T02:53:35;24.30;62.20
21502;DHT22;27639;48.674;9.242;2023-06-22T02:56:02;24.30;62.40
21502;DHT22;27639;48.674;9.242;2023-06-22T02:58:31;24.20;62.40
21502;DHT22;27639;48.674;9.242;2023-06-22T03:01:04;24.20;62.40
21502;DHT22;27639;48.674;9.242;2023-06-22T03:03:30;24.20;62.40
21502;DHT22;27639;48.674;9.242;2023-06-22T03:05:56;24.10;62.20
21502;DHT22;27639;48.674;9.242;2023-06-22T03:08:21;24.20;62.40
21502;DHT22;27639;48.674;9.242;2023-06-22T03:10:47;24.10;62.20
21502;DHT22;27639;48.674;9.242;2023-06-22T03:13:12;24.10;62.20
21502;DHT22;27639;48.674;9.242;2023-06-22T03:15:38;24.10;62.30
21502;DHT22;27639;48.674;9.242;2023-06-22T03:18:04;24.10;62.20
21502;DHT22;27639;48.674;9.242;2023-06-22T03:20:30;24.10;62.20
21502;DHT22;27639;48.674;9.242;2023-06-22T03:22:58;24.20;62.40
21502;DHT22;27639;48.674;9.242;2023-06-22T03:25:24;24.10;62.70
21502;DHT22;27639;48.674;9.242;2023-06-22T03:27:50;24.00;62.60
21502;DHT22;27639;48.674;9.242;2023-06-22T03:30:15;24.00;62.80
21502;DHT22;27639;48.674;9.242;2023-06-22T03:32:41;24.00;62.70
21502;DHT22;27639;48.674;9.242;2023-06-22T03:35:08;24.10;62.60
21502;DHT22;27639;48.674;9.242;2023-06-22T03:37:34;24.10;62.70
21502;DHT22;27639;48.674;9.242;2023-06-22T03:39:59;24.10;62.70
21502;DHT22;27639;48.674;9.242;2023-06-22T03:42:26;24.10;62.70
21502;DHT22;27639;48.674;9.242;2023-06-22T03:44:51;24.10;62.70
21502;DHT22;27639;48.674;9.242;2023-06-22T03:47:17;24.10;62.80
21502;DHT22;27639;48.674;9.242;2023-06-22T03:49:43;24.10;62.90
21502;DHT22;27639;48.674;9.242;2023-06-22T03:52:09;24.20;62.60
21502;DHT22;27639;48.674;9.242;2023-06-22T03:54:36;24.20;62.60
21502;DHT22;27639;48.674;9.242;2023-06-22T03:57:01;24.20;62.30
21502;DHT22;27639;48.674;9.242;2023-06-22T03:59:27;24.20;62.30
21502;DHT22;27639;48.674;9.242;2023-06-22T04:01:53;24.20;62.40
21502;DHT22;27639;48.674;9.242;2023-06-22T04:04:18;24.20;62.30
21502;DHT22;27639;48.674;9.242;2023-06-22T04:06:44;24.20;62.80
21502;DHT22;27639;48.674;9.242;2023-06-22T04:09:10;24.20;62.10
21502;DHT22;27639;48.674;9.242;2023-06-22T04:11:35;24.20;62.10
21502;DHT22;27639;48.674;9.242;2023-06-22T04:14:01;24.10;62.20
21502;DHT22;27639;48.674;9.242;2023-06-22T04:16:27;24.10;62.20
21502;DHT22;27639;48.674;9.242;2023-06-22T04:18:52;24.10;62.30
21502;DHT22;27639;48.674;9.242;2023-06-22T04:21:18;24.00;63.30
21502;DHT22;27639;48.674;9.242;2023-06-22T04:23:45;24.10;62.60
21502;DHT22;27639;48.674;9.242;2023-06-22T04:26:11;24.10;62.70
21502;DHT22;27639;48.674;9.242;2023-06-22T04:28:37;24.10;62.70
21502;DHT22;27639;48.674;9.242;2023-06-22T04:31:03;24.20;62.50
21502;DHT22;27639;48.674;9.242;2023-06-22T04:33:29;24.30;62.50
21502;DHT22;27639;48.674;9.242;2023-06-22T04:35:55;24.50;63.20
21502;DHT22;27639;48.674;9.242;2023-06-22T04:38:26;24.80;63.00
21502;DHT22;27639;48.674;9.242;2023-06-22T04:40:51;25.10;63.20
21502;DHT22;27639;48.674;9.242;2023-06-22T04:43:19;25.40;62.60
21502;DHT22;27639;48.674;9.242;2023-06-22T04:45:44;25.70;61.40
21502;DHT22;27639;48.674;9.242;2023-06-22T04:48:10;26.00;60.40
21502;DHT22;27639;48.674;9.242;2023-06-22T04:50:38;26.40;60.00
21502;DHT22;27639;48.674;9.242;2023-06-22T04:53:04;26.70;59.00
21502;DHT22;27639;48.674;9.242;2023-06-22T04:55:31;27.00;58.30
21502;DHT22;27639;48.674;9.242;2023-06-22T04:57:57;27.10;57.50
21502;DHT22;27639;48.674;9.242;2023-06-22T05:00:30;27.10;57.50
21502;DHT22;27639;48.674;9.242;2023-06-22T05:02:55;27.00;57.20
21502;DHT22;27639;48.674;9.242;2023-06-22T05:05:23;27.10;57.30
21502;DHT22;27639;48.674;9.242;2023-06-22T05:07:50;27.20;57.10
21502;DHT22;27639;48.674;9.242;2023-06-22T05:10:18;27.30;57.10
21502;DHT22;27639;48.674;9.242;2023-06-22T05:12:45;27.40;57.10
21502;DHT22;27639;48.674;9.242;2023-06-22T05:15:11;27.50;56.30
21502;DHT22;27639;48.674;9.242;2023-06-22T05:17:37;27.70;56.00
21502;DHT22;27639;48.674;9.242;2023-06-22T05:20:09;27.80;55.60
21502;DHT22;27639;48.674;9.242;2023-06-22T05:22:35;27.80;55.20
21502;DHT22;27639;48.674;9.242;2023-06-22T05:25:01;27.90;55.10
21502;DHT22;27639;48.674;9.242;2023-06-22T05:27:26;27.90;54.90
21502;DHT22;27639;48.674;9.242;2023-06-22T05:29:52;28.00;54.80
21502;DHT22;27639;48.674;9.242;2023-06-22T05:32:18;28.10;54.60
21502;DHT22;27639;48.674;9.242;2023-06-22T05:34:44;28.20;54.40
21502;DHT22;27639;48.674;9.242;2023-06-22T05:37:09;28.40;54.70
21502;DHT22;27639;48.674;9.242;2023-06-22T05:39:35;28.60;54.00
21502;DHT22;27639;48.674;9.242;2023-06-22T05:42:05;28.80;53.90
21502;DHT22;27639;48.674;9.242;2023-06-22T05:44:31;29.00;53.70
21502;DHT22;27639;48.674;9.242;2023-06-22T05:46:56;29.20;53.30
21502;DHT22;27639;48.674;9.242;2023-06-22T05:49:22;29.30;52.70
21502;DHT22;27639;48.674;9.242;2023-06-22T05:51:48;29.30;52.00
21502;DHT22;27639;48.674;9.242;2023-06-22T05:54:14;29.30;51.40
21502;DHT22;27639;48.674;9.242;2023-06-22T05:56:41;29.30;51.30
21502;DHT22;27639;48.674;9.242;2023-06-22T05:59:06;29.20;51.60
21502;DHT22;27639;48.674;9.242;2023-06-22T06:01:32;29.10;51.80
21502;DHT22;27639;48.674;9.242;2023-06-22T06:04:02;29.00;51.50
21502;DHT22;27639;48.674;9.242;2023-06-22T06:06:29;28.90;51.80
21502;DHT22;27639;48.674;9.242;2023-06-22T06:08:55;28.90;51.80
21502;DHT22;27639;48.674;9.242;2023-06-22T06:11:21;28.80;51.70
21502;DHT22;27639;48.674;9.242;2023-06-22T06:13:47;28.70;51.90
21502;DHT22;27639;48.674;9.242;2023-06-22T06:16:12;28.80;52.80
21502;DHT22;27639;48.674;9.242;2023-06-22T06:18:38;28.80;52.10
21502;DHT22;27639;48.674;9.242;2023-06-22T06:21:03;28.80;51.70
21502;DHT22;27639;48.674;9.242;2023-06-22T06:23:29;28.80;51.70
21502;DHT22;27639;48.674;9.242;2023-06-22T06:25:54;28.70;51.20
21502;DHT22;27639;48.674;9.242;2023-06-22T06:28:21;28.50;51.40
21502;DHT22;27639;48.674;9.242;2023-06-22T06:30:47;28.40;51.90
21502;DHT22;27639;48.674;9.242;2023-06-22T06:33:13;28.40;51.50
21502;DHT22;27639;48.674;9.242;2023-06-22T06:35:38;28.30;52.00
21502;DHT22;27639;48.674;9.242;2023-06-22T06:38:04;28.20;52.20
21502;DHT22;27639;48.674;9.242;2023-06-22T06:40:30;28.10;52.50
21502;DHT22;27639;48.674;9.242;2023-06-22T06:42:56;28.20;52.40
21502;DHT22;27639;48.674;9.242;2023-06-22T06:45:22;28.20;52.20
21502;DHT22;27639;48.674;9.242;2023-06-22T06:47:50;28.30;51.80
21502;DHT22;27639;48.674;9.242;2023-06-22T06:50:15;28.30;52.00
21502;DHT22;27639;48.674;9.242;2023-06-22T06:52:41;28.40;52.60
21502;DHT22;27639;48.674;9.242;2023-06-22T06:55:08;28.50;51.50
21502;DHT22;27639;48.674;9.242;2023-06-22T06:57:37;28.60;51.30
21502;DHT22;27639;48.674;9.242;2023-06-22T07:00:04;28.60;51.40
21502;DHT22;27639;48.674;9.242;2023-06-22T07:02:37;28.60;51.60
21502;DHT22;27639;48.674;9.242;2023-06-22T07:05:03;28.70;51.60
21502;DHT22;27639;48.674;9.242;2023-06-22T07:07:30;28.90;52.10
21502;DHT22;27639;48.674;9.242;2023-06-22T07:09:55;29.00;51.30
21502;DHT22;27639;48.674;9.242;2023-06-22T07:12:21;29.10;50.40
21502;DHT22;27639;48.674;9.242;2023-06-22T07:14:46;29.10;50.70
21502;DHT22;27639;48.674;9.242;2023-06-22T07:17:12;29.10;50.30
21502;DHT22;27639;48.674;9.242;2023-06-22T07:19:38;28.90;50.50
21502;DHT22;27639;48.674;9.242;2023-06-22T07:22:04;28.80;51.00
21502;DHT22;27639;48.674;9.242;2023-06-22T07:24:29;28.90;50.90
21502;DHT22;27639;48.674;9.242;2023-06-22T07:26:55;29.00;51.00
21502;DHT22;27639;48.674;9.242;2023-06-22T07:29:24;28.90;50.60
21502;DHT22;27639;48.674;9.242;2023-06-22T07:31:50;29.00;50.10
21502;DHT22;27639;48.674;9.242;2023-06-22T07:34:22;29.10;50.20
21502;DHT22;27639;48.674;9.242;2023-06-22T07:36:48;29.20;50.00
21502;DHT22;27639;48.674;9.242;2023-06-22T07:39:13;29.30;49.70
21502;DHT22;27639;48.674;9.242;2023-06-22T07:41:40;29.30;49.40
21502;DHT22;27639;48.674;9.242;2023-06-22T07:44:08;29.30;49.60
21502;DHT22;27639;48.674;9.242;2023-06-22T07:46:34;29.40;49.20
21502;DHT22;27639;48.674;9.242;2023-06-22T07:48:59;29.50;49.70
21502;DHT22;27639;48.674;9.242;2023-06-22T07:51:26;29.70;49.40
21502;DHT22;27639;48.674;9.242;2023-06-22T07:53:52;29.80;49.00
21502;DHT22;27639;48.674;9.242;2023-06-22T07:56:18;29.80;48.50
21502;DHT22;27639;48.674;9.242;2023-06-22T07:58:47;29.80;48.90
21502;DHT22;27639;48.674;9.242;2023-06-22T08:01:13;29.90;48.50
21502;DHT22;27639;48.674;9.242;2023-06-22T08:03:39;29.90;48.50
21502;DHT22;27639;48.674;9.242;2023-06-22T08:06:05;29.90;49.20
21502;DHT22;27639;48.674;9.242;2023-06-22T08:08:31;30.00;49.20
21502;DHT22;27639;48.674;9.242;2023-06-22T08:10:57;30.20;49.40
21502;DHT22;27639;48.674;9.242;2023-06-22T08:13:22;30.40;48.80
21502;DHT22;27639;48.674;9.242;2023-06-22T08:15:48;30.50;48.70
21502;DHT22;27639;48.674;9.242;2023-06-22T08:18:13;30.60;48.50
21502;DHT22;27639;48.674;9.242;2023-06-22T08:20:39;30.60;48.70
21502;DHT22;27639;48.674;9.242;2023-06-22T08:23:05;30.80;48.60
21502;DHT22;27639;48.674;9.242;2023-06-22T08:25:35;30.90;48.20
21502;DHT22;27639;48.674;9.242;2023-06-22T08:28:04;31.00;48.10
21502;DHT22;27639;48.674;9.242;2023-06-22T08:30:30;31.10;48.20
21502;DHT22;27639;48.674;9.242;2023-06-22T08:32:56;31.20;47.90
21502;DHT22;27639;48.674;9.242;2023-06-22T08:35:24;31.40;47.50
21502;DHT22;27639;48.674;9.242;2023-06-22T08:37:51;31.50;47.60
21502;DHT22;27639;48.674;9.242;2023-06-22T08:40:20;31.70;48.20
21502;DHT22;27639;48.674;9.242;2023-06-22T08:42:47;31.80;47.50
21502;DHT22;27639;48.674;9.242;2023-06-22T08:45:13;31.80;47.00
21502;DHT22;27639;48.674;9.242;2023-06-22T08:47:39;31.90;46.90
21502;DHT22;27639;48.674;9.242;2023-06-22T08:50:07;32.00;46.90
21502;DHT22;27639;48.674;9.242;2023-06-22T08:52:34;31.80;46.70
21502;DHT22;27639;48.674;9.242;2023-06-22T08:54:59;31.80;46.60
21502;DHT22;27639;48.674;9.242;2023-06-22T08:57:25;31.80;47.20
21502;DHT22;27639;48.674;9.242;2023-06-22T08:59:51;31.60;47.10
21502;DHT22;27639;48.674;9.242;2023-06-22T09:02:24;31.70;47.70
21502;DHT22;27639;48.674;9.242;2023-06-22T09:04:49;31.50;47.30
21502;DHT22;27639;48.674;9.242;2023-06-22T09:07:21;31.50;47.10
21502;DHT22;27639;48.674;9.242;2023-06-22T09:09:48;31.50;47.00
21502;DHT22;27639;48.674;9.242;2023-06-22T09:12:14;31.70;46.90
21502;DHT22;27639;48.674;9.242;2023-06-22T09:14:40;31.80;46.90
21502;DHT22;27639;48.674;9.242;2023-06-22T09:17:05;31.90;46.50
21502;DHT22;27639;48.674;9.242;2023-06-22T09:19:31;32.00;47.20
21502;DHT22;27639;48.674;9.242;2023-06-22T09:21:56;31.90;46.90
21502;DHT22;27639;48.674;9.242;2023-06-22T09:24:22;31.80;46.60
21502;DHT22;27639;48.674;9.242;2023-06-22T09:26:48;31.80;47.30
21502;DHT22;27639;48.674;9.242;2023-06-22T09:29:13;31.90;46.80
21502;DHT22;27639;48.674;9.242;2023-06-22T09:31:39;32.00;46.60
21502;DHT22;27639;48.674;9.242;2023-06-22T09:34:05;32.20;46.70
21502;DHT22;27639;48.674;9.242;2023-06-22T09:36:31;32.30;46.30
21502;DHT22;27639;48.674;9.242;2023-06-22T09:38:56;32.30;46.50
21502;DHT22;27639;48.674;9.242;2023-06-22T09:41:24;32.40;46.20
21502;DHT22;27639;48.674;9.242;2023-06-22T09:43:50;32.50;45.70
21502;DHT22;27639;48.674;9.242;2023-06-22T09:46:16;32.60;45.30
21502;DHT22;27639;48.674;9.242;2023-06-22T09:48:42;32.70;45.50
21502;DHT22;27639;48.674;9.242;2023-06-22T09:51:08;32.80;45.30
21502;DHT22;27639;48.674;9.242;2023-06-22T09:53:33;32.80;45.40
21502;DHT22;27639;48.674;9.242;2023-06-22T09:56:00;32.70;45.40
21502;DHT22;27639;48.674;9.242;2023-06-22T09:58:26;32.80;45.40
21502;DHT22;27639;48.674;9.242;2023-06-22T10:00:52;32.80;45.10
21502;DHT22;27639;48.674;9.242;2023-06-22T10:03:18;32.80;45.30
21502;DHT22;27639;48.674;9.242;2023-06-22T10:05:44;32.90;45.30
21502;DHT22;27639;48.674;9.242;2023-06-22T10:08:09;32.90;45.20
21502;DHT22;27639;48.674;9.242;2023-06-22T10:10:35;32.80;45.40
21502;DHT22;27639;48.674;9.242;2023-06-22T10:13:08;32.90;45.20
21502;DHT22;27639;48.674;9.242;2023-06-22T10:15:37;32.90;45.30
21502;DHT22;27639;48.674;9.242;2023-06-22T10:18:03;32.90;45.30
21502;DHT22;27639;48.674;9.242;2023-06-22T10:20:29;32.90;45.30
21502;DHT22;27639;48.674;9.242;2023-06-22T10:22:55;32.90;45.00
21502;DHT22;27639;48.674;9.242;2023-06-22T10:25:21;32.80;45.00
21502;DHT22;27639;48.674;9.242;2023-06-22T10:27:47;32.80;45.10
21502;DHT22;27639;48.674;9.242;2023-06-22T10:30:13;32.80;45.20
21502;DHT22;27639;48.674;9.242;2023-06-22T10:32:39;32.80;45.40
21502;DHT22;27639;48.674;9.242;2023-06-22T10:35:05;32.70;45.20
21502;DHT22;27639;48.674;9.242;2023-06-22T10:37:31;32.70;45.00
21502;DHT22;27639;48.674;9.242;2023-06-22T10:39:57;32.80;44.60
21502;DHT22;27639;48.674;9.242;2023-06-22T10:42:22;32.80;44.80
21502;DHT22;27639;48.674;9.242;2023-06-22T10:44:48;32.80;44.80
21502;DHT22;27639;48.674;9.242;2023-06-22T10:47:14;32.90;45.30
21502;DHT22;27639;48.674;9.242;2023-06-22T10:49:40;33.00;44.70
21502;DHT22;27639;48.674;9.242;2023-06-22T10:52:09;33.00;44.60
21502;DHT22;27639;48.674;9.242;2023-06-22T10:54:35;33.00;44.60
21502;DHT22;27639;48.674;9.242;2023-06-22T10:57:02;32.90;44.50
21502;DHT22;27639;48.674;9.242;2023-06-22T10:59:28;32.90;44.50
21502;DHT22;27639;48.674;9.242;2023-06-22T11:01:56;32.80;44.50
21502;DHT22;27639;48.674;9.242;2023-06-22T11:04:22;32.80;44.60
21502;DHT22;27639;48.674;9.242;2023-06-22T11:06:48;32.90;44.70
21502;DHT22;27639;48.674;9.242;2023-06-22T11:09:14;33.00;45.10
21502;DHT22;27639;48.674;9.242;2023-06-22T11:11:46;33.00;45.00
21502;DHT22;27639;48.674;9.242;2023-06-22T11:14:11;33.10;45.30
21502;DHT22;27639;48.674;9.242;2023-06-22T11:16:37;33.10;45.10
21502;DHT22;27639;48.674;9.242;2023-06-22T11:19:04;33.20;44.90
21502;DHT22;27639;48.674;9.242;2023-06-22T11:21:30;33.20;44.70
21502;DHT22;27639;48.674;9.242;2023-06-22T11:23:56;33.20;44.70
21502;DHT22;27639;48.674;9.242;2023-06-22T11:26:22;33.20;44.70
21502;DHT22;27639;48.674;9.242;2023-06-22T11:28:48;33.20;44.70
21502;DHT22;27639;48.674;9.242;2023-06-22T11:31:13;33.30;43.90
21502;DHT22;27639;48.674;9.242;2023-06-22T11:33:39;33.20;43.90
21502;DHT22;27639;48.674;9.242;2023-06-22T11:36:05;33.30;44.20
21502;DHT22;27639;48.674;9.242;2023-06-22T11:38:30;33.30;43.70
21502;DHT22;27639;48.674;9.242;2023-06-22T11:40:58;33.40;43.40
21502;DHT22;27639;48.674;9.242;2023-06-22T11:43:24;33.30;43.60
21502;DHT22;27639;48.674;9.242;2023-06-22T11:45:49;33.40;43.00
21502;DHT22;27639;48.674;9.242;2023-06-22T11:48:15;33.40;43.20
21502;DHT22;27639;48.674;9.242;2023-06-22T11:50:41;33.50;42.90
21502;DHT22;27639;48.674;9.242;2023-06-22T11:53:07;33.50;42.90
21502;DHT22;27639;48.674;9.242;2023-06-22T11:55:32;33.40;43.10
21502;DHT22;27639;48.674;9.242;2023-06-22T11:57:58;33.40;43.60
21502;DHT22;27639;48.674;9.242;2023-06-22T12:00:26;33.40;43.60
21502;DHT22;27639;48.674;9.242;2023-06-22T12:02:52;33.30;43.30
21502;DHT22;27639;48.674;9.242;2023-06-22T12:05:21;33.20;43.30
21502;DHT22;27639;48.674;9.242;2023-06-22T12:07:48;33.30;43.10
21502;DHT22;27639;48.674;9.242;2023-06-22T12:10:13;33.40;43.20
21502;DHT22;27639;48.674;9.242;2023-06-22T12:12:39;33.50;43.40
21502;DHT22;27639;48.674;9.242;2023-06-22T12:15:05;33.40;43.20
21502;DHT22;27639;48.674;9.242;2023-06-22T12:17:31;33.50;43.40
21502;DHT22;27639;48.674;9.242;2023-06-22T12:19:57;33.50;43.10
21502;DHT22;27639;48.674;9.242;2023-06-22T12:22:22;33.60;42.90
21502;DHT22;27639;48.674;9.242;2023-06-22T12:24:48;33.70;43.00
21502;DHT22;27639;48.674;9.242;2023-06-22T12:27:15;33.70;42.70
21502;DHT22;27639;48.674;9.242;2023-06-22T12:29:44;33.80;42.40
21502;DHT22;27639;48.674;9.242;2023-06-22T12:32:10;33.80;42.10
21502;DHT22;27639;48.674;9.242;2023-06-22T12:34:38;33.80;42.20
21502;DHT22;27639;48.674;9.242;2023-06-22T12:37:04;33.80;42.00
21502;DHT22;27639;48.674;9.242;2023-06-22T12:39:31;33.70;42.20
21502;DHT22;27639;48.674;9.242;2023-06-22T12:41:57;33.70;42.20
21502;DHT22;27639;48.674;9.242;2023-06-22T12:44:23;33.70;42.20
21502;DHT22;27639;48.674;9.242;2023-06-22T12:46:48;33.80;42.40
21502;DHT22;27639;48.674;9.242;2023-06-22T12:49:14;33.70;42.20
21502;DHT22;27639;48.674;9.242;2023-06-22T12:51:40;33.70;42.30
21502;DHT22;27639;48.674;9.242;2023-06-22T12:54:07;33.70;42.50
21502;DHT22;27639;48.674;9.242;2023-06-22T12:56:33;33.70;42.90
21502;DHT22;27639;48.674;9.242;2023-06-22T12:58:59;33.70;42.90
21502;DHT22;27639;48.674;9.242;2023-06-22T13:01:27;33.80;43.00
21502;DHT22;27639;48.674;9.242;2023-06-22T13:03:53;33.80;43.40
21502;DHT22;27639;48.674;9.242;2023-06-22T13:06:18;33.70;43.50
21502;DHT22;27639;48.674;9.242;2023-06-22T13:08:44;33.70;43.10
21502;DHT22;27639;48.674;9.242;2023-06-22T13:11:09;33.70;43.00
21502;DHT22;27639;48.674;9.242;2023-06-22T13:13:35;33.70;43.00
21502;DHT22;27639;48.674;9.242;2023-06-22T13:16:01;33.70;43.00
21502;DHT22;27639;48.674;9.242;2023-06-22T13:18:26;33.70;43.00
21502;DHT22;27639;48.674;9.242;2023-06-22T13:20:52;33.70;43.00
21502;DHT22;27639;48.674;9.242;2023-06-22T13:23:20;33.70;43.00
21502;DHT22;27639;48.674;9.242;2023-06-22T13:25:46;33.80;43.00
21502;DHT22;27639;48.674;9.242;2023-06-22T13:28:12;33.80;43.10
21502;DHT22;27639;48.674;9.242;2023-06-22T13:30:40;33.80;42.80
21502;DHT22;27639;48.674;9.242;2023-06-22T13:33:05;33.80;42.60
21502;DHT22;27639;48.674;9.242;2023-06-22T13:35:31;33.80;42.90
21502;DHT22;27639;48.674;9.242;2023-06-22T13:37:57;33.80;42.60
21502;DHT22;27639;48.674;9.242;2023-06-22T13:40:22;33.80;42.30
21502;DHT22;27639;48.674;9.242;2023-06-22T13:42:48;33.90;42.10
21502;DHT22;27639;48.674;9.242;2023-06-22T13:45:14;33.90;41.80
21502;DHT22;27639;48.674;9.242;2023-06-22T13:47:42;34.00;41.90
21502;DHT22;27639;48.674;9.242;2023-06-22T13:50:07;34.00;41.50
21502;DHT22;27639;48.674;9.242;2023-06-22T13:52:33;34.10;41.70
21502;DHT22;27639;48.674;9.242;2023-06-22T13:54:59;34.10;41.90
21502;DHT22;27639;48.674;9.242;2023-06-22T13:57:24;34.00;41.90
21502;DHT22;27639;48.674;9.242;2023-06-22T13:59:50;34.00;42.10
21502;DHT22;27639;48.674;9.242;2023-06-22T14:02:15;33.90;42.30
21502;DHT22;27639;48.674;9.242;2023-06-22T14:04:41;33.90;42.30
21502;DHT22;27639;48.674;9.242;2023-06-22T14:07:06;34.00;42.20
21502;DHT22;27639;48.674;9.242;2023-06-22T14:09:32;34.10;42.40
21502;DHT22;27639;48.674;9.242;2023-06-22T14:11:58;34.10;42.40
21502;DHT22;27639;48.674;9.242;2023-06-22T14:14:23;34.20;42.10
21502;DHT22;27639;48.674;9.242;2023-06-22T14:16:49;34.20;41.80
21502;DHT22;27639;48.674;9.242;2023-06-22T14:19:17;34.20;41.80
21502;DHT22;27639;48.674;9.242;2023-06-22T14:21:42;34.20;42.10
21502;DHT22;27639;48.674;9.242;2023-06-22T14:24:08;34.20;42.10
21502;DHT22;27639;48.674;9.242;2023-06-22T14:26:34;34.20;42.10
21502;DHT22;27639;48.674;9.242;2023-06-22T14:28:59;34.30;42.10
21502;DHT22;27639;48.674;9.242;2023-06-22T14:31:25;34.30;41.90
21502;DHT22;27639;48.674;9.242;2023-06-22T14:33:50;34.30;41.80
21502;DHT22;27639;48.674;9.242;2023-06-22T14:36:16;34.40;41.80
21502;DHT22;27639;48.674;9.242;2023-06-22T14:38:43;34.40;41.70
21502;DHT22;27639;48.674;9.242;2023-06-22T14:41:09;34.50;41.90
21502;DHT22;27639;48.674;9.242;2023-06-22T14:43:34;34.40;41.90
21502;DHT22;27639;48.674;9.242;2023-06-22T14:46:00;34.40;42.20
21502;DHT22;27639;48.674;9.242;2023-06-22T14:48:26;34.40;41.90
21502;DHT22;27639;48.674;9.242;2023-06-22T14:50:51;34.60;41.50
21502;DHT22;27639;48.674;9.242;2023-06-22T14:53:19;34.50;41.50
21502;DHT22;27639;48.674;9.242;2023-06-22T14:55:45;34.60;41.60
21502;DHT22;27639;48.674;9.242;2023-06-22T14:58:10;34.60;41.60
21502;DHT22;27639;48.674;9.242;2023-06-22T15:00:36;34.60;40.60
21502;DHT22;27639;48.674;9.242;2023-06-22T15:03:02;34.70;40.30
21502;DHT22;27639;48.674;9.242;2023-06-22T15:05:30;34.60;39.30
21502;DHT22;27639;48.674;9.242;2023-06-22T15:07:56;34.60;38.30
21502;DHT22;27639;48.674;9.242;2023-06-22T15:10:21;34.60;37.20
21502;DHT22;27639;48.674;9.242;2023-06-22T15:12:48;34.50;36.80
21502;DHT22;27639;48.674;9.242;2023-06-22T15:15:13;34.50;36.30
21502;DHT22;27639;48.674;9.242;2023-06-22T15:17:39;34.50;35.80
21502;DHT22;27639;48.674;9.242;2023-06-22T15:20:05;34.50;35.80
21502;DHT22;27639;48.674;9.242;2023-06-22T15:22:31;34.50;35.60
21502;DHT22;27639;48.674;9.242;2023-06-22T15:24:57;34.50;35.10
21502;DHT22;27639;48.674;9.242;2023-06-22T15:27:24;34.40;35.00
21502;DHT22;27639;48.674;9.242;2023-06-22T15:29:49;34.40;34.70
21502;DHT22;27639;48.674;9.242;2023-06-22T15:32:15;34.30;34.60
21502;DHT22;27639;48.674;9.242;2023-06-22T15:34:40;34.30;34.60